< < Back
Terminal Aerodrome Forecast


Current Version              Previous Versions:   1  2  3  4  5  6  7  8  9  

Terminal Aerodrome Forecast

335
FTUS44 KOHX 210500
TAFCSV
TAF
KCSV 210526Z 2106/2206 24005KT P6SM SKC
     FM210700 30004KT P6SM SCT050
      TEMPO 2109/2112 4SM BR
     FM211500 32008KT P6SM BKN050=

Latest METAR

263
SAUS70 KWBC 211000 RRJ
MTRCSV
METAR KCSV 210953Z AUTO 23003KT 10SM CLR 10/08 A3001 RMK AO2 SLP156
T01000078


USA.gov is the U.S. government's official web portal to all federal, state and local government web resources and services.